Terminal Aerodrome Forecast
Issued by NWS

Home | Current Version | Previous Version | Text Only | Print | Product List | Glossary On
Versions: 1 2 3 4 5 6 7 8 9 10 11 12 13 14 15 16 17 18 19 20 21 22 23 24 25 26 27
977
FTUS43 KGRB 210651 AAA
TAFMTW
TAF AMD
KMTW 210651Z 2107/2206 11004KT 2SM -DZ BR OVC004
      TEMPO 2107/2111 1/4SM FG OVC002
     FM211100 09005KT 1/4SM FG VCSH OVC002
     FM211500 11006KT 3/4SM -RA BR OVC003
     FM212200 14006KT 3/4SM -DZ BR OVC003
     FM220100 21004KT 1SM -DZ BR OVC004=

USA.gov is the U.S. government's official web portal to all federal, state and local government web resources and services.